Terminal Aerodrome Forecast
Issued by NWS Denver/Boulder, CO

Home | Current Version | Previous Version | Text Only | Print | Product List | Glossary Off
Versions: 1 2 3 4 5 6 7 8 9 10 11 12 13 14 15 16 17 18 19 20 21 22 23 24 25 26 27 28 29 30 31 32 33 34 35 36 37 38 39 40 41 42 43 44 45 46 47 48 49 50

000
FTUS45 KBOU 202101 AAA
TAFDEN
TAF AMD
KDEN 202101Z 2021/2124 16012G20KT P6SM FEW120 SCT220
     FM210300 18012KT P6SM SCT220
     FM210600 20010KT P6SM FEW200
     FM211400 22008KT P6SM FEW100 BKN140
     FM211900 17007KT P6SM SCT080 BKN120=

USA.gov is the U.S. government's official web portal to all federal, state and local government web resources and services.